Terminal Aerodrome Forecast
Issued by NWS Albany, NY

Home | Current Version | Previous Version | Text Only | Print | Product List | Glossary On
Versions: 1 2 3 4 5 6 7 8 9 10 11 12 13 14 15 16 17 18 19 20 21 22 23 24 25 26
000
FTUS41 KALY 161134
TAFPOU
TAF
KPOU 161134Z 1612/1712 VRB03KT P6SM BKN025
      TEMPO 1613/1615 SCT025
     FM161500 24008KT P6SM SCT025 BKN040
     FM161800 25012G18KT P6SM BKN050
     FM162100 28013G22KT P6SM BKN045
     FM170000 30010KT P6SM SCT045
     FM170600 31005KT P6SM FEW045=

USA.gov is the U.S. government's official web portal to all federal, state and local government web resources and services.